Detall de PIREP

Printer-friendly versionPDF version

[2015/12/25 07:12:00]
Flight IATA:CT1004
Pilot Number:012
Company ICAO:CAT
Aircraft Type:B752/E
PAX:180
Aircraft Registration:PAX
Departing Airport: LUKK
Destination Airport: LIEA
Alternate Airport:LIEO
Online: VATSIM
Route:POGAV UZ650 BCU UZ924 VAL UY88 BATRU UZ924 VEBAR UY88 KEB UZ924 GILUK UY88 VRANA UZ924 MOPUV UY106 OKUNO UL5 MINKA
Flight Level:F360
No Slew and time accel
No pause
Crash detect
Detect pilot in Cockpit between each 30 and 45 minutes
07:12 Zero fuel Weight: 181819 Lbs, Fuel Weight: 30399 Lbs
07:12 VATSIM:LUKK 250700Z 00000KT 1900 R08/P2000N BR BKN001 M03/M04 Q1030 R08/CLRD95 TEMPO 0300 FZFG VV001
07:12 VATSIM:LIEA 250650Z 02002KT 5000 BCFG NSC 05/05 Q1033
07:12 X-MAS CHARTER
07:14 Parking Brakes off
07:20 Take-off
07:20 Take off Weight: 210841 Lbs
07:20 Wind: 000º @ 000 Knots Heading: 268º
07:20 POS N46º 55´ 41´´ E028º 56´ 02´´
07:20 Flaps:2 at 186 Knots
07:20 Gear Up: 188 Knots
07:21 Flaps:1 at 205 Knots
07:21 Flaps:0 at 206 Knots
07:34 TOC
07:34 Fuel Weight: 25039 Lb
07:35 Wind:304º@021 Knots Heading: 255º Ground Speed: 434 Knots Altitude 36430 ft
07:50 Wind:316º@024 Knots Heading: 250º Ground Speed: 437 Knots Altitude 36555 ft
08:05 Wind:306º@031 Knots Heading: 250º Ground Speed: 433 Knots Altitude 36584 ft
08:20 Wind:295º@029 Knots Heading: 252º Ground Speed: 427 Knots Altitude 36591 ft
08:35 Wind:278º@036 Knots Heading: 244º Ground Speed: 428 Knots Altitude 36637 ft
08:50 Wind:270º@039 Knots Heading: 242º Ground Speed: 424 Knots Altitude 36633 ft
09:05 Wind:255º@031 Knots Heading: 279º Ground Speed: 422 Knots Altitude 36624 ft
09:20 Wind:247º@028 Knots Heading: 249º Ground Speed: 425 Knots Altitude 36456 ft
09:20 TOD
09:20 Fuel Weight: 11383 Lb
09:35 Wind:242º@008 Knots Heading: 247º Ground Speed: 260 Knots Altitude 10239 ft
09:44 Flaps:1 at 204 Knots
09:44 Flaps:2 at 202 Knots
09:45 Gear Down: 140 Knots
09:45 Flaps:4 at 140 Knots
09:45 Flaps:5 at 151 Knots
09:45 Flaps:6 at 155 Knots
09:49 TouchDown:Rate -199 ft/min Speed: 134 Knots
09:49 Flaps:5 at 83 Knots
09:49 Flaps:0 at 80 Knots
09:49 VATSIM:LIEA 250920Z 36003KT CAVOK 10/09 Q1034
09:50 Land
09:50 Wind:008º@003 Knots
09:50 Heading: 205º
09:50 Flight Duration: 02:30
09:50 Landing Weight: 190570 Lbs
09:50 POS N40º 37´ 49´´ E008º 17´ 22´´
09:52 Parking brakes on
09:52 Block to Block Duration: 02:38
09:52 Final Fuel: 8767 Lbls
09:52 Spent Fuel: 21631 Lbls
09:52 Flight Length: 981 NM
09:52 TOD Land Length: 139 NM

Exportar CSV

Powered by Drupal - Modified by Danger4k